createdAt,value
2022-08-19T00:02:09.229Z,100504.47
2022-08-19T00:07:10.924Z,100497.38
2022-08-19T00:12:13.438Z,100507.03
2022-08-19T00:17:15.345Z,100501.97
2022-08-19T00:22:18.968Z,100489.47
2022-08-19T00:27:25.873Z,100502.75
2022-08-19T00:32:28.695Z,100503.38
2022-08-19T00:37:31.554Z,100504.38
2022-08-19T00:42:34.084Z,100502.63
2022-08-19T00:47:35.763Z,100495.56
2022-08-19T00:52:47.236Z,100475.19
2022-08-19T00:58:07.859Z,100486.00
2022-08-19T01:03:20.313Z,100485.16
2022-08-19T01:08:23.100Z,100480.13
2022-08-19T01:13:49.097Z,100493.63
2022-08-19T01:18:51.954Z,100502.28
2022-08-19T01:23:53.873Z,100502.50
2022-08-19T01:29:00.741Z,100532.81
2022-08-19T01:34:04.364Z,100538.63
2022-08-19T01:39:12.274Z,100556.81
2022-08-19T01:44:18.672Z,100568.72
2022-08-19T01:49:26.022Z,100573.38
2022-08-19T01:54:28.589Z,100583.34
2022-08-19T01:59:31.770Z,100604.13
2022-08-19T02:04:34.950Z,100630.78
2022-08-19T02:09:37.261Z,100611.44
2022-08-19T02:14:39.062Z,100598.34
2022-08-19T02:19:41.343Z,100575.53
2022-08-19T02:24:43.166Z,100537.72
2022-08-19T02:29:48.714Z,100520.22
2022-08-19T02:34:50.484Z,100485.06
2022-08-19T02:39:52.233Z,100485.09
2022-08-19T02:44:57.195Z,100492.13
2022-08-19T02:49:59.110Z,100452.63
2022-08-19T02:55:01.929Z,100473.47
2022-08-19T03:00:08.161Z,100473.47
2022-08-19T03:05:11.559Z,100494.41
2022-08-19T03:10:14.406Z,100481.94
2022-08-19T03:15:16.419Z,100485.47
2022-08-19T03:20:18.241Z,100469.09
2022-08-19T03:25:19.950Z,100481.25
2022-08-19T03:30:23.214Z,100468.94
2022-08-19T03:35:25.653Z,100452.16
2022-08-19T03:40:27.528Z,100453.88
2022-08-19T03:45:30.182Z,100426.66
2022-08-19T03:50:37.650Z,100469.53
2022-08-19T03:55:42.970Z,100458.19
2022-08-19T04:00:44.738Z,100452.81
2022-08-19T04:05:47.990Z,100436.03
2022-08-19T04:10:50.529Z,100454.25
2022-08-19T04:15:52.256Z,100443.06
2022-08-19T04:20:53.991Z,100458.91
2022-08-19T04:25:56.762Z,100476.41
2022-08-19T04:30:59.567Z,100480.81
2022-08-19T04:36:01.297Z,100472.00
2022-08-19T04:41:24.916Z,100458.00
2022-08-19T04:46:39.597Z,100466.78
2022-08-19T04:51:46.851Z,100462.69
2022-08-19T04:56:50.603Z,100483.53
2022-08-19T05:01:52.366Z,100474.63
2022-08-19T05:06:54.248Z,100463.94
2022-08-19T05:12:04.088Z,100450.47
2022-08-19T05:17:26.026Z,100441.97
2022-08-19T05:22:33.442Z,100436.69
2022-08-19T05:27:35.845Z,100428.59
2022-08-19T05:32:38.565Z,100430.19
2022-08-19T05:37:41.633Z,100426.38
2022-08-19T05:42:43.493Z,100439.13
2022-08-19T05:47:46.018Z,100422.09
2022-08-19T05:52:54.464Z,100429.63
2022-08-19T05:57:56.265Z,100418.09
2022-08-19T06:03:00.555Z,100427.41
2022-08-19T06:08:11.330Z,100427.22
2022-08-19T06:13:13.173Z,100436.25
2022-08-19T06:18:17.570Z,100441.31
2022-08-19T06:23:21.197Z,100424.19
2022-08-19T06:28:26.034Z,100419.66
2022-08-19T06:33:27.755Z,100420.19
2022-08-19T06:38:29.874Z,100424.59
2022-08-19T06:43:31.708Z,100423.22
2022-08-19T06:48:45.301Z,100451.72
2022-08-19T06:53:54.998Z,100454.59
2022-08-19T06:58:59.295Z,100463.97
2022-08-19T07:04:02.490Z,100480.03
2022-08-19T07:09:14.748Z,100483.88
2022-08-19T07:14:28.497Z,100466.25
2022-08-19T07:19:30.746Z,100472.28
2022-08-19T07:24:34.231Z,100455.41
2022-08-19T07:29:37.660Z,100465.44
2022-08-19T07:34:40.094Z,100474.09
2022-08-19T07:39:41.945Z,100477.97
2022-08-19T07:44:50.395Z,100510.59
2022-08-19T07:49:53.334Z,100507.00
2022-08-19T07:54:55.032Z,100493.88
2022-08-19T07:59:57.156Z,100495.53
2022-08-19T08:05:17.232Z,100509.81
2022-08-19T08:10:21.273Z,100519.50
2022-08-19T08:15:25.126Z,100528.41
2022-08-19T08:20:27.034Z,100523.25
2022-08-19T08:25:29.323Z,100534.56
2022-08-19T08:30:36.771Z,100543.22
2022-08-19T08:35:42.700Z,100548.66
2022-08-19T08:40:51.859Z,100569.88
2022-08-19T08:46:31.482Z,100546.09
2022-08-19T08:51:56.208Z,100559.97
2022-08-19T08:57:07.353Z,100561.94
2022-08-19T09:02:12.615Z,100559.03
2022-08-19T09:08:00.554Z,100566.94
2022-08-19T09:13:43.322Z,100557.66
2022-08-19T09:18:54.090Z,100580.53
2022-08-19T09:23:56.497Z,100564.41
2022-08-19T09:29:00.599Z,100548.31
2022-08-19T09:34:04.682Z,100538.13
2022-08-19T09:39:16.114Z,100534.41
2022-08-19T09:44:21.279Z,100526.25
2022-08-19T09:49:24.382Z,100528.53
2022-08-19T09:54:27.638Z,100523.56
2022-08-19T09:59:30.510Z,100537.53
2022-08-19T10:04:53.447Z,100526.75
2022-08-19T10:09:55.514Z,100551.69
2022-08-19T10:14:58.000Z,100533.13
2022-08-19T10:19:59.834Z,100530.88
2022-08-19T10:25:01.914Z,100523.44
2022-08-19T10:30:04.865Z,100517.44
2022-08-19T10:35:11.932Z,100516.47
2022-08-19T10:40:23.613Z,100512.28
2022-08-19T10:45:26.863Z,100509.97
2022-08-19T10:50:48.540Z,100520.41
2022-08-19T10:56:09.020Z,100517.06
2022-08-19T11:01:11.022Z,100528.91
2022-08-19T11:06:13.169Z,100524.31
2022-08-19T11:11:15.179Z,100532.44
2022-08-19T11:16:23.380Z,100536.59
2022-08-19T11:21:27.916Z,100540.72
2022-08-19T11:26:32.872Z,100535.47
2022-08-19T11:31:37.170Z,100547.75
2022-08-19T11:36:43.790Z,100520.00
2022-08-19T11:41:46.187Z,100552.50
2022-08-19T11:46:48.201Z,100545.84
2022-08-19T11:51:51.606Z,100548.38
2022-08-19T11:56:55.556Z,100551.94
2022-08-19T12:02:00.139Z,100536.28
2022-08-19T12:07:02.795Z,100565.78
2022-08-19T12:12:07.953Z,100546.38
2022-08-19T12:17:10.425Z,100564.50
2022-08-19T12:22:12.280Z,100572.47
2022-08-19T12:27:14.086Z,100565.25
2022-08-19T12:32:34.699Z,100566.13
2022-08-19T12:37:36.489Z,100570.22
2022-08-19T12:42:42.401Z,100573.00
2022-08-19T12:47:45.372Z,100553.28
2022-08-19T12:52:49.717Z,100562.88
2022-08-19T12:57:51.762Z,100560.03
2022-08-19T13:02:54.050Z,100556.09
2022-08-19T13:08:00.378Z,100556.41
2022-08-19T13:13:08.538Z,100558.69
2022-08-19T13:18:11.589Z,100573.09
2022-08-19T13:23:13.442Z,100570.50
2022-08-19T13:28:15.412Z,100568.06
2022-08-19T13:33:18.815Z,100576.81
2022-08-19T13:38:26.542Z,100562.69
2022-08-19T13:43:28.301Z,100558.19
2022-08-19T13:48:30.028Z,100552.81
2022-08-19T13:53:31.862Z,100557.94
2022-08-19T13:58:33.992Z,100550.06
2022-08-19T14:03:37.898Z,100556.09
2022-08-19T14:08:46.404Z,100555.53
2022-08-19T14:13:52.349Z,100550.22
2022-08-19T14:18:54.425Z,100541.34
2022-08-19T14:23:59.138Z,100558.06
2022-08-19T14:29:02.399Z,100548.88
2022-08-19T14:34:04.125Z,100542.84
2022-08-19T14:39:06.325Z,100561.41
2022-08-19T14:44:10.959Z,100556.50
2022-08-19T14:49:13.041Z,100563.66
2022-08-19T14:54:15.337Z,100556.41
2022-08-19T14:59:17.966Z,100559.53
2022-08-19T15:04:19.828Z,100563.03
2022-08-19T15:09:21.540Z,100569.34
2022-08-19T15:14:23.224Z,100588.00
2022-08-19T15:19:24.924Z,100591.00
2022-08-19T15:24:28.528Z,100605.25
2022-08-19T15:29:30.345Z,100600.31
2022-08-19T15:34:33.462Z,100601.44
2022-08-19T15:39:35.262Z,100635.94
2022-08-19T15:44:37.023Z,100633.66
2022-08-19T15:49:47.308Z,100643.75
2022-08-19T15:54:49.138Z,100652.09
2022-08-19T16:00:09.226Z,100638.28
2022-08-19T16:05:40.578Z,100636.34
2022-08-19T16:10:42.306Z,100645.38
2022-08-19T16:15:44.909Z,100626.09
2022-08-19T16:20:46.614Z,100628.75
2022-08-19T16:25:48.397Z,100615.63
2022-08-19T16:30:51.157Z,100641.88
2022-08-19T16:35:58.457Z,100612.38
2022-08-19T16:41:02.196Z,100617.47
2022-08-19T16:46:03.987Z,100630.00
2022-08-19T16:51:08.517Z,100652.63
2022-08-19T16:56:10.841Z,100641.41
2022-08-19T17:01:12.647Z,100628.72
2022-08-19T17:06:29.424Z,100649.81
2022-08-19T17:11:35.566Z,100647.13
2022-08-19T17:16:38.133Z,100652.28
2022-08-19T17:21:40.707Z,100650.69
2022-08-19T17:26:42.400Z,100643.81
2022-08-19T17:31:44.149Z,100647.38
2022-08-19T17:36:45.993Z,100653.47
2022-08-19T17:41:47.714Z,100640.38
2022-08-19T17:46:49.425Z,100652.69
2022-08-19T17:51:52.212Z,100645.09
2022-08-19T17:56:54.186Z,100658.31
2022-08-19T18:01:56.004Z,100675.16
2022-08-19T18:06:58.069Z,100668.22
2022-08-19T18:12:00.456Z,100684.91
2022-08-19T18:17:12.992Z,100688.44
2022-08-19T18:22:36.759Z,100689.56
2022-08-19T18:27:39.093Z,100705.34
2022-08-19T18:32:42.383Z,100708.00
2022-08-19T18:37:45.961Z,100715.03
2022-08-19T18:43:22.496Z,100723.84
2022-08-19T18:48:43.320Z,100731.81
2022-08-19T18:53:48.626Z,100742.53
2022-08-19T18:58:50.345Z,100728.97
2022-08-19T19:03:55.514Z,100737.75
2022-08-19T19:08:58.314Z,100751.91
2022-08-19T19:14:03.199Z,100771.22
2022-08-19T19:19:07.638Z,100772.06
2022-08-19T19:24:09.489Z,100780.78
2022-08-19T19:29:12.572Z,100778.19
2022-08-19T19:34:29.103Z,100778.13
2022-08-19T19:39:46.194Z,100772.94
2022-08-19T19:44:54.616Z,100776.38
2022-08-19T19:50:14.386Z,100802.75
2022-08-19T19:55:18.405Z,100797.50
2022-08-19T20:00:22.004Z,100795.75
2022-08-19T20:05:24.958Z,100795.78
2022-08-19T20:10:27.182Z,100801.09
2022-08-19T20:15:32.008Z,100783.56
2022-08-19T20:20:34.280Z,100778.34
2022-08-19T20:25:39.222Z,100796.84
2022-08-19T20:30:46.590Z,100796.88
2022-08-19T20:35:49.858Z,100772.31
2022-08-19T20:40:52.689Z,100775.75
2022-08-19T20:45:55.852Z,100787.16
2022-08-19T20:50:58.151Z,100782.84
2022-08-19T20:56:00.287Z,100785.53
2022-08-19T21:01:04.714Z,100784.78
2022-08-19T21:06:07.074Z,100775.97
2022-08-19T21:11:10.616Z,100743.44
2022-08-19T21:16:12.524Z,100739.06
2022-08-19T21:21:14.470Z,100743.59
2022-08-19T21:26:16.481Z,100754.28
2022-08-19T21:31:18.303Z,100772.88
2022-08-19T21:36:20.339Z,100788.72
2022-08-19T21:41:22.648Z,100814.16
2022-08-19T21:46:24.401Z,100802.94
2022-08-19T21:51:26.237Z,100780.09
2022-08-19T21:56:28.574Z,100800.25
2022-08-19T22:01:30.336Z,100801.91
2022-08-19T22:06:32.100Z,100794.91
2022-08-19T22:11:34.514Z,100790.47
2022-08-19T22:16:36.209Z,100788.75
2022-08-19T22:21:40.102Z,100789.59
2022-08-19T22:26:42.820Z,100764.25
2022-08-19T22:31:44.950Z,100752.84
2022-08-19T22:36:46.653Z,100775.81
2022-08-19T22:41:49.358Z,100769.88
2022-08-19T22:46:51.076Z,100778.75
2022-08-19T22:52:11.169Z,100785.84
2022-08-19T22:57:14.140Z,100791.97
2022-08-19T23:02:39.601Z,100763.81
2022-08-19T23:07:57.217Z,100769.84
2022-08-19T23:13:00.145Z,100770.75
2022-08-19T23:18:05.532Z,100776.00
2022-08-19T23:23:14.185Z,100784.94
2022-08-19T23:28:34.154Z,100768.25
2022-08-19T23:33:50.835Z,100787.47
2022-08-19T23:38:53.754Z,100802.44
2022-08-19T23:43:55.587Z,100787.50
2022-08-19T23:48:57.366Z,100769.09
2022-08-19T23:53:59.123Z,100755.09
2022-08-19T23:59:00.848Z,100765.53
